sensor_id;sensor_type;location;lat;lon;timestamp;P1;durP1;ratioP1;P2;durP2;ratioP2
31126;SDS011;17775;57.948;12.514;2024-03-23T00:52:49;3.33;;;1.10;;
31126;SDS011;17775;57.948;12.514;2024-03-23T00:55:14;2.63;;;1.10;;
31126;SDS011;17775;57.948;12.514;2024-03-23T00:57:40;2.33;;;1.00;;
31126;SDS011;17775;57.948;12.514;2024-03-23T01:00:05;2.17;;;1.05;;
31126;SDS011;17775;57.948;12.514;2024-03-23T01:02:36;2.90;;;1.20;;
31126;SDS011;17775;57.948;12.514;2024-03-23T01:05:01;5.13;;;1.67;;
31126;SDS011;17775;57.948;12.514;2024-03-23T01:07:26;3.28;;;1.27;;
31126;SDS011;17775;57.948;12.514;2024-03-23T01:09:52;3.03;;;1.50;;
31126;SDS011;17775;57.948;12.514;2024-03-23T01:12:18;3.92;;;1.40;;
31126;SDS011;17775;57.948;12.514;2024-03-23T01:14:43;5.43;;;1.83;;
31126;SDS011;17775;57.948;12.514;2024-03-23T01:17:09;2.65;;;1.27;;
31126;SDS011;17775;57.948;12.514;2024-03-23T01:19:34;3.08;;;1.63;;
31126;SDS011;17775;57.948;12.514;2024-03-23T01:22:00;2.55;;;1.33;;
31126;SDS011;17775;57.948;12.514;2024-03-23T01:24:25;4.00;;;1.10;;
31126;SDS011;17775;57.948;12.514;2024-03-23T01:26:51;2.88;;;1.65;;
31126;SDS011;17775;57.948;12.514;2024-03-23T01:29:16;3.95;;;1.55;;
31126;SDS011;17775;57.948;12.514;2024-03-23T01:31:42;4.53;;;1.30;;
31126;SDS011;17775;57.948;12.514;2024-03-23T01:34:07;2.95;;;1.27;;
31126;SDS011;17775;57.948;12.514;2024-03-23T01:36:33;1.70;;;1.00;;
31126;SDS011;17775;57.948;12.514;2024-03-23T01:38:59;3.30;;;1.38;;
31126;SDS011;17775;57.948;12.514;2024-03-23T01:41:24;4.32;;;1.67;;
31126;SDS011;17775;57.948;12.514;2024-03-23T01:43:50;3.00;;;1.10;;
31126;SDS011;17775;57.948;12.514;2024-03-23T01:46:15;3.53;;;1.38;;
31126;SDS011;17775;57.948;12.514;2024-03-23T01:48:41;2.67;;;1.20;;
31126;SDS011;17775;57.948;12.514;2024-03-23T01:51:07;3.25;;;1.27;;
31126;SDS011;17775;57.948;12.514;2024-03-23T01:53:33;2.05;;;1.10;;
31126;SDS011;17775;57.948;12.514;2024-03-23T01:55:58;2.80;;;1.23;;
31126;SDS011;17775;57.948;12.514;2024-03-23T01:58:24;1.33;;;0.80;;
31126;SDS011;17775;57.948;12.514;2024-03-23T02:00:49;1.75;;;1.00;;
31126;SDS011;17775;57.948;12.514;2024-03-23T02:03:25;1.38;;;0.80;;
31126;SDS011;17775;57.948;12.514;2024-03-23T02:05:50;3.03;;;1.17;;
31126;SDS011;17775;57.948;12.514;2024-03-23T02:08:20;3.08;;;1.13;;
31126;SDS011;17775;57.948;12.514;2024-03-23T02:10:45;1.65;;;0.75;;
31126;SDS011;17775;57.948;12.514;2024-03-23T02:13:11;1.88;;;0.80;;
31126;SDS011;17775;57.948;12.514;2024-03-23T02:15:37;3.30;;;0.95;;
31126;SDS011;17775;57.948;12.514;2024-03-23T02:18:02;1.33;;;1.00;;
31126;SDS011;17775;57.948;12.514;2024-03-23T02:20:28;2.47;;;0.80;;
31126;SDS011;17775;57.948;12.514;2024-03-23T02:22:53;0.85;;;0.70;;
31126;SDS011;17775;57.948;12.514;2024-03-23T02:25:19;3.17;;;0.95;;
31126;SDS011;17775;57.948;12.514;2024-03-23T02:27:44;2.10;;;0.85;;
31126;SDS011;17775;57.948;12.514;2024-03-23T02:30:10;3.50;;;1.05;;
31126;SDS011;17775;57.948;12.514;2024-03-23T02:32:35;1.40;;;0.70;;
31126;SDS011;17775;57.948;12.514;2024-03-23T02:35:01;3.75;;;1.42;;
31126;SDS011;17775;57.948;12.514;2024-03-23T02:37:26;4.18;;;1.13;;
31126;SDS011;17775;57.948;12.514;2024-03-23T02:39:52;2.25;;;1.00;;
31126;SDS011;17775;57.948;12.514;2024-03-23T02:42:20;3.83;;;1.10;;
31126;SDS011;17775;57.948;12.514;2024-03-23T02:44:46;3.38;;;0.80;;
31126;SDS011;17775;57.948;12.514;2024-03-23T02:47:12;3.33;;;1.10;;
31126;SDS011;17775;57.948;12.514;2024-03-23T02:49:37;1.23;;;0.73;;
31126;SDS011;17775;57.948;12.514;2024-03-23T02:52:03;3.95;;;1.00;;
31126;SDS011;17775;57.948;12.514;2024-03-23T02:54:28;4.50;;;1.42;;
31126;SDS011;17775;57.948;12.514;2024-03-23T02:56:54;3.58;;;1.40;;
31126;SDS011;17775;57.948;12.514;2024-03-23T02:59:20;3.05;;;1.20;;
31126;SDS011;17775;57.948;12.514;2024-03-23T03:01:45;2.00;;;0.88;;
31126;SDS011;17775;57.948;12.514;2024-03-23T03:04:10;2.33;;;0.95;;
31126;SDS011;17775;57.948;12.514;2024-03-23T03:06:36;2.22;;;0.90;;
31126;SDS011;17775;57.948;12.514;2024-03-23T03:09:02;2.65;;;0.95;;
31126;SDS011;17775;57.948;12.514;2024-03-23T03:11:27;4.18;;;1.02;;
31126;SDS011;17775;57.948;12.514;2024-03-23T03:13:53;2.85;;;1.00;;
31126;SDS011;17775;57.948;12.514;2024-03-23T03:16:18;1.95;;;0.80;;
31126;SDS011;17775;57.948;12.514;2024-03-23T03:18:44;1.95;;;1.00;;
31126;SDS011;17775;57.948;12.514;2024-03-23T03:21:11;2.88;;;1.17;;
31126;SDS011;17775;57.948;12.514;2024-03-23T03:23:37;4.45;;;1.20;;
31126;SDS011;17775;57.948;12.514;2024-03-23T03:26:03;3.60;;;1.48;;
31126;SDS011;17775;57.948;12.514;2024-03-23T03:28:29;1.20;;;0.90;;
31126;SDS011;17775;57.948;12.514;2024-03-23T03:30:56;2.33;;;1.10;;
31126;SDS011;17775;57.948;12.514;2024-03-23T03:33:22;1.83;;;1.10;;
31126;SDS011;17775;57.948;12.514;2024-03-23T03:35:47;3.45;;;1.30;;
31126;SDS011;17775;57.948;12.514;2024-03-23T03:38:13;2.17;;;1.30;;
31126;SDS011;17775;57.948;12.514;2024-03-23T03:40:38;2.08;;;1.05;;
31126;SDS011;17775;57.948;12.514;2024-03-23T03:43:04;5.43;;;1.85;;
31126;SDS011;17775;57.948;12.514;2024-03-23T03:45:29;3.83;;;1.83;;
31126;SDS011;17775;57.948;12.514;2024-03-23T03:47:55;2.72;;;2.05;;
31126;SDS011;17775;57.948;12.514;2024-03-23T03:50:21;6.03;;;2.65;;
31126;SDS011;17775;57.948;12.514;2024-03-23T03:52:47;7.18;;;2.50;;
31126;SDS011;17775;57.948;12.514;2024-03-23T03:55:13;5.00;;;2.70;;
31126;SDS011;17775;57.948;12.514;2024-03-23T03:57:38;5.30;;;2.70;;
31126;SDS011;17775;57.948;12.514;2024-03-23T04:00:04;5.60;;;2.30;;
31126;SDS011;17775;57.948;12.514;2024-03-23T04:02:33;4.28;;;2.25;;
31126;SDS011;17775;57.948;12.514;2024-03-23T04:04:59;3.85;;;2.28;;
31126;SDS011;17775;57.948;12.514;2024-03-23T04:07:24;4.22;;;2.40;;
31126;SDS011;17775;57.948;12.514;2024-03-23T04:09:49;4.55;;;2.20;;
31126;SDS011;17775;57.948;12.514;2024-03-23T04:12:15;3.72;;;2.00;;
31126;SDS011;17775;57.948;12.514;2024-03-23T04:14:40;5.97;;;2.00;;
31126;SDS011;17775;57.948;12.514;2024-03-23T04:17:06;4.15;;;2.53;;
31126;SDS011;17775;57.948;12.514;2024-03-23T04:19:31;3.03;;;2.00;;
31126;SDS011;17775;57.948;12.514;2024-03-23T04:21:57;3.50;;;1.80;;
31126;SDS011;17775;57.948;12.514;2024-03-23T04:24:22;4.22;;;1.77;;
31126;SDS011;17775;57.948;12.514;2024-03-23T04:26:48;2.50;;;1.88;;
31126;SDS011;17775;57.948;12.514;2024-03-23T04:29:13;2.17;;;1.65;;
31126;SDS011;17775;57.948;12.514;2024-03-23T04:31:39;2.38;;;1.75;;
31126;SDS011;17775;57.948;12.514;2024-03-23T04:34:04;2.20;;;1.52;;
31126;SDS011;17775;57.948;12.514;2024-03-23T04:36:30;1.70;;;1.30;;
31126;SDS011;17775;57.948;12.514;2024-03-23T04:38:59;2.03;;;1.40;;
31126;SDS011;17775;57.948;12.514;2024-03-23T04:41:25;3.03;;;1.60;;
31126;SDS011;17775;57.948;12.514;2024-03-23T04:43:51;2.10;;;1.30;;
31126;SDS011;17775;57.948;12.514;2024-03-23T04:46:16;1.77;;;1.33;;
31126;SDS011;17775;57.948;12.514;2024-03-23T04:48:42;2.35;;;1.38;;
31126;SDS011;17775;57.948;12.514;2024-03-23T04:51:09;1.35;;;1.15;;
31126;SDS011;17775;57.948;12.514;2024-03-23T04:53:38;1.65;;;1.17;;
31126;SDS011;17775;57.948;12.514;2024-03-23T04:56:04;1.48;;;1.17;;
31126;SDS011;17775;57.948;12.514;2024-03-23T04:58:29;2.72;;;1.20;;
31126;SDS011;17775;57.948;12.514;2024-03-23T05:00:55;2.28;;;1.20;;
31126;SDS011;17775;57.948;12.514;2024-03-23T05:03:21;2.05;;;1.42;;
31126;SDS011;17775;57.948;12.514;2024-03-23T05:05:47;4.32;;;1.77;;
31126;SDS011;17775;57.948;12.514;2024-03-23T05:08:13;2.30;;;1.45;;
31126;SDS011;17775;57.948;12.514;2024-03-23T05:10:38;1.90;;;1.20;;
31126;SDS011;17775;57.948;12.514;2024-03-23T05:13:04;2.75;;;1.48;;
31126;SDS011;17775;57.948;12.514;2024-03-23T05:15:29;2.35;;;1.40;;
31126;SDS011;17775;57.948;12.514;2024-03-23T05:17:55;2.58;;;1.40;;
31126;SDS011;17775;57.948;12.514;2024-03-23T05:20:20;2.05;;;1.38;;
31126;SDS011;17775;57.948;12.514;2024-03-23T05:22:46;1.98;;;1.17;;
31126;SDS011;17775;57.948;12.514;2024-03-23T05:25:11;2.13;;;1.27;;
31126;SDS011;17775;57.948;12.514;2024-03-23T05:27:37;2.85;;;1.90;;
31126;SDS011;17775;57.948;12.514;2024-03-23T05:30:03;2.72;;;1.40;;
31126;SDS011;17775;57.948;12.514;2024-03-23T05:32:32;2.92;;;1.70;;
31126;SDS011;17775;57.948;12.514;2024-03-23T05:34:57;6.28;;;2.40;;
31126;SDS011;17775;57.948;12.514;2024-03-23T05:37:23;4.18;;;2.55;;
31126;SDS011;17775;57.948;12.514;2024-03-23T05:39:49;4.40;;;2.08;;
31126;SDS011;17775;57.948;12.514;2024-03-23T05:42:18;4.05;;;2.20;;
31126;SDS011;17775;57.948;12.514;2024-03-23T05:44:44;3.38;;;2.35;;
31126;SDS011;17775;57.948;12.514;2024-03-23T05:47:10;2.78;;;1.98;;
31126;SDS011;17775;57.948;12.514;2024-03-23T05:49:36;2.90;;;2.28;;
31126;SDS011;17775;57.948;12.514;2024-03-23T05:52:01;2.70;;;1.80;;
31126;SDS011;17775;57.948;12.514;2024-03-23T05:54:29;3.20;;;1.80;;
31126;SDS011;17775;57.948;12.514;2024-03-23T05:56:54;2.65;;;1.73;;
31126;SDS011;17775;57.948;12.514;2024-03-23T05:59:20;3.70;;;1.95;;
31126;SDS011;17775;57.948;12.514;2024-03-23T06:01:46;3.38;;;1.80;;
31126;SDS011;17775;57.948;12.514;2024-03-23T06:04:12;2.80;;;1.88;;
31126;SDS011;17775;57.948;12.514;2024-03-23T06:06:39;2.92;;;1.67;;
31126;SDS011;17775;57.948;12.514;2024-03-23T06:09:04;2.80;;;1.73;;
31126;SDS011;17775;57.948;12.514;2024-03-23T06:11:30;2.72;;;1.77;;
31126;SDS011;17775;57.948;12.514;2024-03-23T06:13:55;3.83;;;1.80;;
31126;SDS011;17775;57.948;12.514;2024-03-23T06:16:21;2.92;;;1.70;;
31126;SDS011;17775;57.948;12.514;2024-03-23T06:18:52;2.67;;;1.50;;
31126;SDS011;17775;57.948;12.514;2024-03-23T06:21:18;3.20;;;1.52;;
31126;SDS011;17775;57.948;12.514;2024-03-23T06:23:44;2.72;;;1.75;;
31126;SDS011;17775;57.948;12.514;2024-03-23T06:26:19;2.88;;;1.80;;
31126;SDS011;17775;57.948;12.514;2024-03-23T06:28:45;3.47;;;1.92;;
31126;SDS011;17775;57.948;12.514;2024-03-23T06:31:11;3.45;;;1.90;;
31126;SDS011;17775;57.948;12.514;2024-03-23T06:33:37;3.05;;;1.80;;
31126;SDS011;17775;57.948;12.514;2024-03-23T06:36:03;3.53;;;1.85;;
31126;SDS011;17775;57.948;12.514;2024-03-23T06:38:29;8.98;;;1.65;;
31126;SDS011;17775;57.948;12.514;2024-03-23T06:40:54;2.60;;;1.55;;
31126;SDS011;17775;57.948;12.514;2024-03-23T06:43:20;1.88;;;1.25;;
31126;SDS011;17775;57.948;12.514;2024-03-23T06:45:52;3.60;;;1.70;;
31126;SDS011;17775;57.948;12.514;2024-03-23T06:48:17;2.80;;;1.60;;
31126;SDS011;17775;57.948;12.514;2024-03-23T06:50:43;2.60;;;1.35;;
31126;SDS011;17775;57.948;12.514;2024-03-23T06:53:09;4.00;;;1.48;;
31126;SDS011;17775;57.948;12.514;2024-03-23T06:55:34;2.13;;;1.17;;
31126;SDS011;17775;57.948;12.514;2024-03-23T06:58:00;2.38;;;1.10;;
31126;SDS011;17775;57.948;12.514;2024-03-23T07:00:25;2.05;;;1.08;;
31126;SDS011;17775;57.948;12.514;2024-03-23T07:02:51;2.97;;;1.15;;
31126;SDS011;17775;57.948;12.514;2024-03-23T07:05:16;3.15;;;1.08;;
31126;SDS011;17775;57.948;12.514;2024-03-23T07:07:42;3.13;;;1.27;;
31126;SDS011;17775;57.948;12.514;2024-03-23T07:10:07;2.15;;;1.05;;
31126;SDS011;17775;57.948;12.514;2024-03-23T07:12:33;2.75;;;0.93;;
31126;SDS011;17775;57.948;12.514;2024-03-23T07:14:58;1.13;;;0.82;;
31126;SDS011;17775;57.948;12.514;2024-03-23T07:17:24;1.40;;;1.00;;
31126;SDS011;17775;57.948;12.514;2024-03-23T07:19:49;1.77;;;0.90;;
31126;SDS011;17775;57.948;12.514;2024-03-23T07:22:15;1.38;;;0.82;;
31126;SDS011;17775;57.948;12.514;2024-03-23T07:24:40;1.50;;;0.80;;
31126;SDS011;17775;57.948;12.514;2024-03-23T07:27:06;1.55;;;0.70;;
31126;SDS011;17775;57.948;12.514;2024-03-23T07:29:38;1.13;;;0.60;;
31126;SDS011;17775;57.948;12.514;2024-03-23T07:32:03;1.65;;;0.50;;
31126;SDS011;17775;57.948;12.514;2024-03-23T07:34:29;1.00;;;0.50;;
31126;SDS011;17775;57.948;12.514;2024-03-23T07:36:54;0.75;;;0.50;;
31126;SDS011;17775;57.948;12.514;2024-03-23T07:39:20;1.67;;;0.65;;
31126;SDS011;17775;57.948;12.514;2024-03-23T07:41:45;1.00;;;0.50;;
31126;SDS011;17775;57.948;12.514;2024-03-23T07:44:11;3.38;;;0.85;;
31126;SDS011;17775;57.948;12.514;2024-03-23T07:46:36;0.80;;;0.50;;
31126;SDS011;17775;57.948;12.514;2024-03-23T07:49:03;0.68;;;0.52;;
31126;SDS011;17775;57.948;12.514;2024-03-23T07:51:29;1.25;;;0.50;;
31126;SDS011;17775;57.948;12.514;2024-03-23T07:53:55;1.48;;;0.40;;
31126;SDS011;17775;57.948;12.514;2024-03-23T07:56:20;1.20;;;0.63;;
31126;SDS011;17775;57.948;12.514;2024-03-23T07:58:47;1.67;;;0.68;;
31126;SDS011;17775;57.948;12.514;2024-03-23T08:01:16;1.63;;;0.60;;
31126;SDS011;17775;57.948;12.514;2024-03-23T08:03:42;1.83;;;0.80;;
31126;SDS011;17775;57.948;12.514;2024-03-23T08:06:12;2.08;;;0.70;;
31126;SDS011;17775;57.948;12.514;2024-03-23T08:08:38;1.52;;;0.88;;
31126;SDS011;17775;57.948;12.514;2024-03-23T08:11:04;0.85;;;0.50;;
31126;SDS011;17775;57.948;12.514;2024-03-23T08:13:30;1.95;;;0.60;;
31126;SDS011;17775;57.948;12.514;2024-03-23T08:15:59;1.70;;;0.80;;
31126;SDS011;17775;57.948;12.514;2024-03-23T08:18:25;1.20;;;0.68;;
31126;SDS011;17775;57.948;12.514;2024-03-23T08:23:23;2.03;;;0.70;;
31126;SDS011;17775;57.948;12.514;2024-03-23T08:25:48;1.30;;;0.70;;
31126;SDS011;17775;57.948;12.514;2024-03-23T08:28:14;0.73;;;0.70;;
31126;SDS011;17775;57.948;12.514;2024-03-23T08:30:40;1.95;;;0.70;;
31126;SDS011;17775;57.948;12.514;2024-03-23T08:33:05;1.05;;;0.70;;
31126;SDS011;17775;57.948;12.514;2024-03-23T08:35:31;1.50;;;0.80;;
31126;SDS011;17775;57.948;12.514;2024-03-23T08:37:56;1.40;;;0.75;;
31126;SDS011;17775;57.948;12.514;2024-03-23T08:40:22;1.88;;;0.80;;
31126;SDS011;17775;57.948;12.514;2024-03-23T08:42:47;1.35;;;0.70;;
31126;SDS011;17775;57.948;12.514;2024-03-23T08:45:13;2.78;;;0.57;;
31126;SDS011;17775;57.948;12.514;2024-03-23T08:47:38;3.55;;;1.05;;
31126;SDS011;17775;57.948;12.514;2024-03-23T08:50:04;3.35;;;0.82;;
31126;SDS011;17775;57.948;12.514;2024-03-23T08:52:30;3.58;;;0.93;;
31126;SDS011;17775;57.948;12.514;2024-03-23T08:54:55;1.92;;;0.88;;
31126;SDS011;17775;57.948;12.514;2024-03-23T08:57:22;1.23;;;0.70;;
31126;SDS011;17775;57.948;12.514;2024-03-23T08:59:47;2.45;;;0.73;;
31126;SDS011;17775;57.948;12.514;2024-03-23T09:02:13;0.63;;;0.50;;
31126;SDS011;17775;57.948;12.514;2024-03-23T09:04:38;1.50;;;0.50;;
31126;SDS011;17775;57.948;12.514;2024-03-23T09:07:04;4.40;;;1.00;;
31126;SDS011;17775;57.948;12.514;2024-03-23T09:09:30;2.15;;;1.00;;
31126;SDS011;17775;57.948;12.514;2024-03-23T09:11:58;2.33;;;1.05;;
31126;SDS011;17775;57.948;12.514;2024-03-23T09:14:24;3.20;;;1.08;;
31126;SDS011;17775;57.948;12.514;2024-03-23T09:16:49;3.58;;;1.35;;
31126;SDS011;17775;57.948;12.514;2024-03-23T09:19:16;4.05;;;1.27;;
31126;SDS011;17775;57.948;12.514;2024-03-23T09:21:42;4.10;;;1.20;;
31126;SDS011;17775;57.948;12.514;2024-03-23T09:24:07;2.28;;;0.88;;
31126;SDS011;17775;57.948;12.514;2024-03-23T09:26:33;2.17;;;1.20;;
31126;SDS011;17775;57.948;12.514;2024-03-23T09:28:58;2.17;;;1.10;;
31126;SDS011;17775;57.948;12.514;2024-03-23T09:31:24;2.17;;;0.73;;
31126;SDS011;17775;57.948;12.514;2024-03-23T09:33:49;3.10;;;0.75;;
31126;SDS011;17775;57.948;12.514;2024-03-23T09:36:16;2.00;;;0.90;;
31126;SDS011;17775;57.948;12.514;2024-03-23T09:38:42;1.48;;;0.85;;
31126;SDS011;17775;57.948;12.514;2024-03-23T09:41:07;3.30;;;0.82;;
31126;SDS011;17775;57.948;12.514;2024-03-23T09:43:34;1.38;;;0.80;;
31126;SDS011;17775;57.948;12.514;2024-03-23T09:45:59;1.25;;;0.70;;
31126;SDS011;17775;57.948;12.514;2024-03-23T09:48:25;0.90;;;0.70;;
31126;SDS011;17775;57.948;12.514;2024-03-23T09:50:51;1.42;;;0.90;;
31126;SDS011;17775;57.948;12.514;2024-03-23T09:53:17;3.92;;;1.00;;
31126;SDS011;17775;57.948;12.514;2024-03-23T09:55:42;2.75;;;0.95;;
31126;SDS011;17775;57.948;12.514;2024-03-23T09:58:08;2.17;;;0.80;;
31126;SDS011;17775;57.948;12.514;2024-03-23T10:00:37;2.92;;;1.05;;
31126;SDS011;17775;57.948;12.514;2024-03-23T10:03:03;4.03;;;1.27;;
31126;SDS011;17775;57.948;12.514;2024-03-23T10:05:30;3.78;;;1.30;;
31126;SDS011;17775;57.948;12.514;2024-03-23T10:10:39;2.85;;;1.10;;
31126;SDS011;17775;57.948;12.514;2024-03-23T10:13:05;1.63;;;1.00;;
31126;SDS011;17775;57.948;12.514;2024-03-23T10:15:30;2.97;;;1.30;;
31126;SDS011;17775;57.948;12.514;2024-03-23T10:17:59;2.80;;;0.93;;
31126;SDS011;17775;57.948;12.514;2024-03-23T10:20:30;3.28;;;1.40;;
31126;SDS011;17775;57.948;12.514;2024-03-23T10:22:55;2.47;;;0.90;;
31126;SDS011;17775;57.948;12.514;2024-03-23T10:25:24;4.40;;;1.10;;
31126;SDS011;17775;57.948;12.514;2024-03-23T10:27:59;6.88;;;1.63;;
31126;SDS011;17775;57.948;12.514;2024-03-23T10:30:29;7.55;;;1.75;;
31126;SDS011;17775;57.948;12.514;2024-03-23T10:33:07;5.85;;;1.20;;
31126;SDS011;17775;57.948;12.514;2024-03-23T10:35:33;4.90;;;1.67;;
31126;SDS011;17775;57.948;12.514;2024-03-23T10:37:58;3.70;;;1.02;;
31126;SDS011;17775;57.948;12.514;2024-03-23T10:40:24;2.88;;;1.35;;
31126;SDS011;17775;57.948;12.514;2024-03-23T10:42:50;3.42;;;1.60;;
31126;SDS011;17775;57.948;12.514;2024-03-23T10:45:17;3.63;;;1.10;;
31126;SDS011;17775;57.948;12.514;2024-03-23T10:47:42;3.47;;;1.40;;
31126;SDS011;17775;57.948;12.514;2024-03-23T10:50:08;5.45;;;1.60;;
31126;SDS011;17775;57.948;12.514;2024-03-23T10:52:34;6.40;;;1.98;;
31126;SDS011;17775;57.948;12.514;2024-03-23T10:55:09;2.88;;;1.15;;
31126;SDS011;17775;57.948;12.514;2024-03-23T11:00:02;6.47;;;1.30;;
31126;SDS011;17775;57.948;12.514;2024-03-23T11:02:29;2.20;;;1.10;;
31126;SDS011;17775;57.948;12.514;2024-03-23T11:04:55;4.18;;;1.40;;
31126;SDS011;17775;57.948;12.514;2024-03-23T11:09:49;4.00;;;1.20;;
31126;SDS011;17775;57.948;12.514;2024-03-23T11:15:12;5.05;;;1.55;;
31126;SDS011;17775;57.948;12.514;2024-03-23T11:17:38;4.28;;;1.48;;
31126;SDS011;17775;57.948;12.514;2024-03-23T11:20:04;3.80;;;1.08;;
31126;SDS011;17775;57.948;12.514;2024-03-23T11:25:19;3.50;;;1.20;;
31126;SDS011;17775;57.948;12.514;2024-03-23T11:27:49;3.63;;;1.33;;
31126;SDS011;17775;57.948;12.514;2024-03-23T11:30:18;4.40;;;1.42;;
31126;SDS011;17775;57.948;12.514;2024-03-23T11:32:45;2.78;;;1.15;;
31126;SDS011;17775;57.948;12.514;2024-03-23T11:35:10;5.00;;;1.40;;
31126;SDS011;17775;57.948;12.514;2024-03-23T11:37:37;3.33;;;1.10;;
31126;SDS011;17775;57.948;12.514;2024-03-23T11:40:18;4.32;;;1.70;;
31126;SDS011;17775;57.948;12.514;2024-03-23T11:42:44;5.13;;;1.85;;
31126;SDS011;17775;57.948;12.514;2024-03-23T11:45:13;5.72;;;1.35;;
31126;SDS011;17775;57.948;12.514;2024-03-23T11:47:39;5.35;;;1.25;;
31126;SDS011;17775;57.948;12.514;2024-03-23T11:50:05;1.80;;;1.27;;
31126;SDS011;17775;57.948;12.514;2024-03-23T11:52:30;2.47;;;1.10;;
31126;SDS011;17775;57.948;12.514;2024-03-23T11:55:03;2.85;;;1.00;;
31126;SDS011;17775;57.948;12.514;2024-03-23T11:57:28;3.13;;;0.95;;
31126;SDS011;17775;57.948;12.514;2024-03-23T11:59:54;2.70;;;0.85;;
31126;SDS011;17775;57.948;12.514;2024-03-23T12:02:20;2.53;;;0.90;;
31126;SDS011;17775;57.948;12.514;2024-03-23T12:04:45;3.78;;;0.90;;
31126;SDS011;17775;57.948;12.514;2024-03-23T12:07:15;2.53;;;1.17;;
31126;SDS011;17775;57.948;12.514;2024-03-23T12:09:41;3.10;;;1.03;;
31126;SDS011;17775;57.948;12.514;2024-03-23T12:12:13;2.53;;;1.00;;
31126;SDS011;17775;57.948;12.514;2024-03-23T12:14:40;3.28;;;1.00;;
31126;SDS011;17775;57.948;12.514;2024-03-23T12:17:13;2.90;;;1.00;;
31126;SDS011;17775;57.948;12.514;2024-03-23T12:19:39;1.90;;;0.80;;
31126;SDS011;17775;57.948;12.514;2024-03-23T12:22:05;1.58;;;1.13;;
31126;SDS011;17775;57.948;12.514;2024-03-23T12:24:31;1.55;;;1.10;;
31126;SDS011;17775;57.948;12.514;2024-03-23T12:27:00;1.13;;;0.77;;
31126;SDS011;17775;57.948;12.514;2024-03-23T12:29:28;1.90;;;1.08;;
31126;SDS011;17775;57.948;12.514;2024-03-23T12:31:53;1.33;;;0.80;;
31126;SDS011;17775;57.948;12.514;2024-03-23T12:34:18;1.25;;;0.85;;
31126;SDS011;17775;57.948;12.514;2024-03-23T12:36:47;1.73;;;0.77;;
31126;SDS011;17775;57.948;12.514;2024-03-23T12:39:13;0.85;;;0.70;;
31126;SDS011;17775;57.948;12.514;2024-03-23T12:41:38;1.75;;;0.80;;
31126;SDS011;17775;57.948;12.514;2024-03-23T12:44:04;0.50;;;0.50;;
31126;SDS011;17775;57.948;12.514;2024-03-23T12:46:29;1.10;;;0.60;;
31126;SDS011;17775;57.948;12.514;2024-03-23T12:48:55;0.45;;;0.40;;
31126;SDS011;17775;57.948;12.514;2024-03-23T12:51:20;0.80;;;0.40;;
31126;SDS011;17775;57.948;12.514;2024-03-23T12:53:46;1.20;;;0.52;;
31126;SDS011;17775;57.948;12.514;2024-03-23T12:56:12;1.05;;;0.52;;
31126;SDS011;17775;57.948;12.514;2024-03-23T12:58:37;1.95;;;0.55;;
31126;SDS011;17775;57.948;12.514;2024-03-23T13:01:03;0.47;;;0.40;;
31126;SDS011;17775;57.948;12.514;2024-03-23T13:03:28;1.27;;;0.60;;
31126;SDS011;17775;57.948;12.514;2024-03-23T13:05:54;0.70;;;0.60;;
31126;SDS011;17775;57.948;12.514;2024-03-23T13:08:19;0.85;;;0.52;;
31126;SDS011;17775;57.948;12.514;2024-03-23T13:10:45;0.90;;;0.60;;
31126;SDS011;17775;57.948;12.514;2024-03-23T13:13:10;1.70;;;0.70;;
31126;SDS011;17775;57.948;12.514;2024-03-23T13:15:36;0.40;;;0.40;;
31126;SDS011;17775;57.948;12.514;2024-03-23T13:18:01;0.80;;;0.40;;
31126;SDS011;17775;57.948;12.514;2024-03-23T13:20:27;0.85;;;0.40;;
31126;SDS011;17775;57.948;12.514;2024-03-23T13:22:53;1.42;;;0.50;;
31126;SDS011;17775;57.948;12.514;2024-03-23T13:25:19;1.63;;;0.35;;
31126;SDS011;17775;57.948;12.514;2024-03-23T13:27:44;0.88;;;0.50;;
31126;SDS011;17775;57.948;12.514;2024-03-23T13:30:10;0.73;;;0.50;;
31126;SDS011;17775;57.948;12.514;2024-03-23T13:32:39;1.27;;;0.70;;
31126;SDS011;17775;57.948;12.514;2024-03-23T13:35:04;1.05;;;0.47;;
31126;SDS011;17775;57.948;12.514;2024-03-23T13:37:31;1.30;;;0.60;;
31126;SDS011;17775;57.948;12.514;2024-03-23T13:39:57;2.78;;;0.93;;
31126;SDS011;17775;57.948;12.514;2024-03-23T13:42:22;1.80;;;0.80;;
31126;SDS011;17775;57.948;12.514;2024-03-23T13:44:51;0.85;;;0.47;;
31126;SDS011;17775;57.948;12.514;2024-03-23T13:47:16;1.27;;;0.60;;
31126;SDS011;17775;57.948;12.514;2024-03-23T13:49:42;1.00;;;0.73;;
31126;SDS011;17775;57.948;12.514;2024-03-23T13:52:07;1.33;;;0.70;;
31126;SDS011;17775;57.948;12.514;2024-03-23T13:54:33;2.65;;;0.80;;
31126;SDS011;17775;57.948;12.514;2024-03-23T13:56:59;3.03;;;0.90;;
31126;SDS011;17775;57.948;12.514;2024-03-23T13:59:24;1.88;;;1.00;;
31126;SDS011;17775;57.948;12.514;2024-03-23T14:01:50;2.60;;;0.90;;
31126;SDS011;17775;57.948;12.514;2024-03-23T14:04:16;2.40;;;1.08;;
31126;SDS011;17775;57.948;12.514;2024-03-23T14:06:42;2.47;;;1.15;;
31126;SDS011;17775;57.948;12.514;2024-03-23T14:09:08;1.85;;;0.85;;
31126;SDS011;17775;57.948;12.514;2024-03-23T14:11:36;1.98;;;1.30;;
31126;SDS011;17775;57.948;12.514;2024-03-23T14:14:02;2.05;;;0.95;;
31126;SDS011;17775;57.948;12.514;2024-03-23T14:16:29;1.35;;;0.70;;
31126;SDS011;17775;57.948;12.514;2024-03-23T14:18:54;0.82;;;0.50;;
31126;SDS011;17775;57.948;12.514;2024-03-23T14:21:20;1.15;;;0.60;;
31126;SDS011;17775;57.948;12.514;2024-03-23T14:23:45;0.47;;;0.45;;
31126;SDS011;17775;57.948;12.514;2024-03-23T14:26:11;1.27;;;0.70;;
31126;SDS011;17775;57.948;12.514;2024-03-23T14:28:36;1.10;;;0.50;;
31126;SDS011;17775;57.948;12.514;2024-03-23T14:31:02;1.92;;;0.60;;
31126;SDS011;17775;57.948;12.514;2024-03-23T14:33:28;1.33;;;0.75;;
31126;SDS011;17775;57.948;12.514;2024-03-23T14:35:54;1.20;;;0.60;;
31126;SDS011;17775;57.948;12.514;2024-03-23T14:38:21;1.40;;;0.85;;
31126;SDS011;17775;57.948;12.514;2024-03-23T14:40:46;1.15;;;0.60;;
31126;SDS011;17775;57.948;12.514;2024-03-23T14:43:12;1.25;;;0.52;;
31126;SDS011;17775;57.948;12.514;2024-03-23T14:48:24;0.73;;;0.60;;
31126;SDS011;17775;57.948;12.514;2024-03-23T14:50:55;1.45;;;0.57;;
31126;SDS011;17775;57.948;12.514;2024-03-23T14:53:21;1.17;;;0.60;;
31126;SDS011;17775;57.948;12.514;2024-03-23T14:55:46;1.25;;;0.50;;
31126;SDS011;17775;57.948;12.514;2024-03-23T14:58:14;1.75;;;0.60;;
31126;SDS011;17775;57.948;12.514;2024-03-23T15:00:40;1.38;;;0.60;;
31126;SDS011;17775;57.948;12.514;2024-03-23T15:03:05;1.40;;;0.65;;
31126;SDS011;17775;57.948;12.514;2024-03-23T15:05:31;2.03;;;0.60;;
31126;SDS011;17775;57.948;12.514;2024-03-23T15:07:57;0.65;;;0.45;;
31126;SDS011;17775;57.948;12.514;2024-03-23T15:10:23;1.92;;;0.52;;
31126;SDS011;17775;57.948;12.514;2024-03-23T15:12:49;0.82;;;0.60;;
31126;SDS011;17775;57.948;12.514;2024-03-23T15:15:14;1.20;;;0.50;;
31126;SDS011;17775;57.948;12.514;2024-03-23T15:17:40;1.75;;;0.95;;
31126;SDS011;17775;57.948;12.514;2024-03-23T15:20:10;0.60;;;0.60;;
31126;SDS011;17775;57.948;12.514;2024-03-23T15:22:37;1.10;;;0.80;;
31126;SDS011;17775;57.948;12.514;2024-03-23T15:25:02;0.77;;;0.57;;
31126;SDS011;17775;57.948;12.514;2024-03-23T15:27:28;0.60;;;0.50;;
31126;SDS011;17775;57.948;12.514;2024-03-23T15:29:55;1.38;;;0.85;;
31126;SDS011;17775;57.948;12.514;2024-03-23T15:32:21;1.00;;;0.68;;
31126;SDS011;17775;57.948;12.514;2024-03-23T15:34:47;1.02;;;0.75;;
31126;SDS011;17775;57.948;12.514;2024-03-23T15:37:16;0.63;;;0.63;;